Aérodrome :
LOGIN :

S'inscrire | Disclaimer

   EN    FR    IT 

 










Légende :    VFR   VFR Marginal   IFR   IFR Intensif   IFR Très Intensif
Visi : 
Plafond : 
>= 8 km
>= 3000ft
5 à 8 km
1000 à 3000 ft
1500m à 5 km
500 à 1000 ft
800 à 1500m
200 à 500 ft
< 800m
< 200 ft
Symboles :   Orages  Brouillard  Fortes neiges  Fortes précipitations  Vent > 20 kt
SIGMETs :   Divers  Orages  Givrage  Turbulence  Onde Orograph.  Cendres Volcan.







- Altitude de l'aérodrome : 330 ft
- Code IATA : LVA
- Voir les cartes d'approche


LFOV - Laval-Entrammes

DERNIER METAR :
  • 180630Z AUTO 25004KT 220V280 9999 BKN008 BKN021 BKN027 18/17 Q1015

METARs EXPIRÉS :
  • 180600Z AUTO 25005KT 9999 BKN008 OVC014 18/17 Q1015
  • 180530Z AUTO 25005KT 210V280 9999 -RA BKN007 BKN036 BKN052 18/17 Q1015
  • 180500Z AUTO 25005KT 220V280 9999 -RA FEW008/// BKN045/// BKN062/// ///TCU 18/17 Q1014
  • 180430Z AUTO 27007KT 9999 -RA FEW006/// OVC094/// ///CB 18/17 Q1014
  • 180400Z AUTO 28006KT 240V310 9999 RA BKN006/// BKN017/// BKN062/// ///CB 18/18 Q1014

TAF N/A
Pas de NOTAMs connus pour ce terrain.



MET'MAP, la Météo Aéronautique d'un coup d'oeil ! - Copyright ORBIFLY Décembre 2007 - Disclaimer

ORBIFLY MET'MAP TEAM :

Programmation & Développement : Alexandra Zaïnal
Conception & Développement : Baudouin d'Aumeries
Co-Programmation & Développement : Marc-Olivier Méhu
Soutien technique & logistique : Manuel Goepfert

Contact : metmap@orbifly.com




SOURCES & CREDITS :

   NOAA